createdAt,value
2019-03-25T00:02:04.917Z,3.60
2019-03-25T00:04:33.648Z,3.30
2019-03-25T00:07:02.240Z,3.13
2019-03-25T00:09:30.779Z,3.60
2019-03-25T00:11:59.349Z,3.60
2019-03-25T00:14:27.805Z,3.63
2019-03-25T00:16:56.341Z,3.70
2019-03-25T00:19:24.841Z,3.60
2019-03-25T00:21:53.307Z,3.43
2019-03-25T00:24:21.838Z,3.73
2019-03-25T00:26:50.415Z,3.20
2019-03-25T00:29:18.936Z,3.67
2019-03-25T00:31:47.449Z,3.60
2019-03-25T00:34:16.164Z,3.43
2019-03-25T00:36:44.683Z,3.93
2019-03-25T00:39:13.127Z,3.90
2019-03-25T00:41:41.697Z,3.57
2019-03-25T00:44:10.156Z,3.30
2019-03-25T00:46:38.620Z,3.30
2019-03-25T00:49:07.351Z,3.60
2019-03-25T00:51:35.877Z,3.50
2019-03-25T00:54:04.601Z,3.37
2019-03-25T00:56:33.143Z,3.70
2019-03-25T00:59:01.681Z,3.23
2019-03-25T01:01:30.127Z,4.07
2019-03-25T01:03:58.711Z,3.40
2019-03-25T01:06:27.241Z,3.80
2019-03-25T01:08:55.684Z,3.50
2019-03-25T01:11:24.244Z,3.57
2019-03-25T01:13:52.697Z,3.70
2019-03-25T01:16:21.141Z,4.30
2019-03-25T01:18:49.651Z,3.93
2019-03-25T01:21:18.102Z,3.70
2019-03-25T01:23:46.555Z,4.43
2019-03-25T01:26:15.054Z,3.67
2019-03-25T01:28:43.573Z,3.80
2019-03-25T01:31:12.033Z,4.13
2019-03-25T01:33:40.680Z,3.80
2019-03-25T01:36:09.158Z,3.67
2019-03-25T01:38:37.608Z,4.00
2019-03-25T01:41:06.175Z,3.67
2019-03-25T01:43:34.635Z,3.93
2019-03-25T01:46:03.093Z,3.87
2019-03-25T01:48:31.594Z,3.90
2019-03-25T01:51:00.096Z,3.80
2019-03-25T01:53:28.572Z,3.83
2019-03-25T01:55:57.145Z,3.67
2019-03-25T01:58:25.607Z,4.17
2019-03-25T02:00:54.051Z,4.20
2019-03-25T02:03:22.588Z,3.90
2019-03-25T02:05:51.041Z,3.70
2019-03-25T02:08:19.513Z,4.20
2019-03-25T02:10:48.011Z,3.80
2019-03-25T02:13:16.478Z,3.70
2019-03-25T02:15:44.994Z,3.93
2019-03-25T02:18:13.481Z,4.20
2019-03-25T02:20:41.935Z,3.97
2019-03-25T02:23:10.511Z,4.07
2019-03-25T02:25:39.109Z,3.87
2019-03-25T02:28:08.132Z,4.50
2019-03-25T02:30:36.585Z,4.60
2019-03-25T02:33:05.289Z,4.07
2019-03-25T02:35:33.809Z,4.50
2019-03-25T02:38:02.335Z,4.43
2019-03-25T02:40:30.928Z,4.90
2019-03-25T02:42:59.507Z,5.10
2019-03-25T02:45:28.025Z,5.10
2019-03-25T02:47:56.546Z,4.67
2019-03-25T02:50:25.081Z,5.70
2019-03-25T02:52:53.597Z,5.53
2019-03-25T02:55:22.191Z,4.77
2019-03-25T02:57:50.742Z,5.40
2019-03-25T03:00:25.115Z,5.60
2019-03-25T03:02:53.824Z,6.47
2019-03-25T03:05:22.309Z,5.60
2019-03-25T03:07:51.075Z,5.93
2019-03-25T03:10:19.619Z,5.60
2019-03-25T03:12:48.073Z,6.03
2019-03-25T03:15:16.603Z,6.00
2019-03-25T03:17:45.180Z,5.50
2019-03-25T03:20:13.780Z,5.70
2019-03-25T03:22:42.307Z,6.23
2019-03-25T03:25:12.554Z,6.07
2019-03-25T03:27:41.070Z,5.80
2019-03-25T03:30:29.442Z,6.37
2019-03-25T03:32:58.038Z,6.07
2019-03-25T03:35:26.569Z,5.80
2019-03-25T03:37:55.151Z,5.87
2019-03-25T03:40:23.674Z,5.57
2019-03-25T03:42:52.141Z,6.07
2019-03-25T03:45:20.708Z,5.30
2019-03-25T03:47:49.228Z,5.97
2019-03-25T03:50:23.448Z,5.70
2019-03-25T03:52:51.964Z,5.37
2019-03-25T03:55:20.558Z,6.10
2019-03-25T03:57:49.172Z,5.43
2019-03-25T04:00:20.747Z,5.83
2019-03-25T04:02:49.202Z,5.63
2019-03-25T04:05:17.718Z,5.20
2019-03-25T04:07:46.238Z,6.30
2019-03-25T04:10:14.754Z,5.97
2019-03-25T04:12:43.282Z,6.03
2019-03-25T04:15:15.009Z,5.67
2019-03-25T04:17:43.466Z,5.67
2019-03-25T04:20:12.258Z,5.20
2019-03-25T04:22:40.930Z,5.87
2019-03-25T04:25:09.521Z,5.83
2019-03-25T04:27:37.971Z,5.97
2019-03-25T04:30:06.828Z,6.07
2019-03-25T04:32:35.317Z,3.60
2019-03-25T04:35:04.272Z,2.57
2019-03-25T04:37:32.786Z,2.40
2019-03-25T04:40:01.322Z,2.87
2019-03-25T04:42:29.871Z,2.80
2019-03-25T04:44:58.525Z,2.70
2019-03-25T04:47:26.976Z,4.00
2019-03-25T04:49:55.418Z,3.33
2019-03-25T04:52:23.916Z,3.80
2019-03-25T04:54:52.350Z,3.97
2019-03-25T04:57:20.803Z,3.80
2019-03-25T04:59:49.412Z,4.10
2019-03-25T05:02:18.137Z,4.13
2019-03-25T05:04:46.661Z,2.90
2019-03-25T05:07:15.152Z,3.13
2019-03-25T05:09:43.617Z,2.60
2019-03-25T05:12:12.140Z,2.67
2019-03-25T05:14:40.664Z,2.80
2019-03-25T05:17:09.132Z,2.40
2019-03-25T05:19:37.580Z,2.60
2019-03-25T05:22:06.164Z,2.30
2019-03-25T05:24:34.622Z,0.70
2019-03-25T05:27:03.100Z,0.30
2019-03-25T05:29:31.622Z,0.37
2019-03-25T05:32:00.137Z,0.50
2019-03-25T05:34:28.574Z,0.40
2019-03-25T05:36:57.061Z,0.67
2019-03-25T05:39:25.516Z,0.70
2019-03-25T05:41:53.962Z,0.30
2019-03-25T05:44:22.467Z,0.20
2019-03-25T05:46:50.918Z,0.30
2019-03-25T05:49:19.369Z,0.50
2019-03-25T05:51:47.860Z,0.60
2019-03-25T05:54:16.323Z,0.60
2019-03-25T05:56:44.781Z,0.63
2019-03-25T05:59:13.391Z,0.70
2019-03-25T06:01:44.058Z,0.77
2019-03-25T06:04:12.022Z,0.90
2019-03-25T06:06:40.516Z,0.90
2019-03-25T06:09:08.960Z,0.90
2019-03-25T06:11:37.706Z,1.00
2019-03-25T06:14:06.212Z,1.00
2019-03-25T06:16:34.669Z,1.10
2019-03-25T06:19:03.114Z,1.00
2019-03-25T06:21:31.609Z,1.10
2019-03-25T06:24:00.094Z,1.17
2019-03-25T06:26:28.548Z,1.00
2019-03-25T06:28:57.049Z,1.30
2019-03-25T06:31:25.506Z,1.10
2019-03-25T06:33:54.030Z,1.20
2019-03-25T06:36:22.569Z,1.00
2019-03-25T06:38:51.020Z,1.23
2019-03-25T06:41:19.488Z,1.30
2019-03-25T06:43:47.984Z,1.20
2019-03-25T06:46:16.511Z,1.30
2019-03-25T06:48:44.961Z,1.07
2019-03-25T06:51:13.458Z,1.20
2019-03-25T06:53:41.906Z,1.20
2019-03-25T06:56:10.836Z,1.63
2019-03-25T06:58:39.341Z,1.20
2019-03-25T07:01:07.805Z,1.13
2019-03-25T07:03:36.300Z,1.30
2019-03-25T07:06:04.862Z,1.10
2019-03-25T07:08:33.323Z,0.73
2019-03-25T07:11:21.212Z,0.80
2019-03-25T07:13:49.664Z,1.00
2019-03-25T07:16:18.199Z,1.10
2019-03-25T07:18:46.704Z,1.00
2019-03-25T07:21:15.164Z,1.03
2019-03-25T07:23:43.615Z,1.00
2019-03-25T07:26:12.301Z,1.10
2019-03-25T07:28:40.756Z,1.07
2019-03-25T07:31:09.295Z,1.00
2019-03-25T07:33:37.836Z,0.90
2019-03-25T07:36:06.357Z,1.10
2019-03-25T07:38:34.812Z,1.40
2019-03-25T07:41:03.325Z,1.30
2019-03-25T07:43:31.775Z,1.23
2019-03-25T07:46:00.380Z,1.50
2019-03-25T07:48:28.873Z,1.60
2019-03-25T07:50:57.401Z,2.00
2019-03-25T07:53:25.936Z,2.20
2019-03-25T07:55:54.425Z,1.60
2019-03-25T07:58:22.976Z,1.50
2019-03-25T08:00:51.513Z,1.33
2019-03-25T08:03:20.144Z,0.90
2019-03-25T08:05:48.684Z,0.87
2019-03-25T08:08:17.269Z,1.10
2019-03-25T08:10:45.791Z,0.80
2019-03-25T08:13:14.444Z,1.10
2019-03-25T08:15:43.076Z,0.73
2019-03-25T08:18:12.159Z,0.97
2019-03-25T08:20:40.645Z,1.30
2019-03-25T08:23:09.099Z,1.30
2019-03-25T08:25:37.545Z,1.57
2019-03-25T08:28:06.045Z,1.20
2019-03-25T08:30:34.496Z,1.17
2019-03-25T08:33:02.951Z,1.20
2019-03-25T08:35:31.539Z,1.10
2019-03-25T08:38:00.065Z,1.10
2019-03-25T08:40:28.659Z,1.10
2019-03-25T08:42:57.171Z,1.00
2019-03-25T08:45:25.820Z,1.10
2019-03-25T08:47:54.315Z,1.07
2019-03-25T08:50:22.881Z,1.20
2019-03-25T08:52:51.321Z,1.23
2019-03-25T08:55:19.782Z,1.20
2019-03-25T08:57:48.360Z,1.10
2019-03-25T09:00:17.262Z,1.20
2019-03-25T09:02:45.725Z,1.40
2019-03-25T09:05:14.567Z,1.30
2019-03-25T09:07:43.014Z,1.20
2019-03-25T09:10:14.723Z,1.57
2019-03-25T09:12:43.317Z,1.50
2019-03-25T09:15:12.670Z,1.50
2019-03-25T09:17:41.197Z,1.43
2019-03-25T09:20:32.088Z,1.50
2019-03-25T09:23:00.567Z,1.20
2019-03-25T09:25:29.028Z,1.40
2019-03-25T09:27:58.585Z,1.50
2019-03-25T09:30:52.516Z,1.40
2019-03-25T09:33:21.717Z,1.63
2019-03-25T09:35:50.397Z,1.40
2019-03-25T09:38:38.304Z,1.80
2019-03-25T09:41:06.823Z,2.10
2019-03-25T09:43:35.345Z,2.00
2019-03-25T09:46:04.100Z,1.80
2019-03-25T09:48:32.569Z,2.20
2019-03-25T09:51:01.209Z,2.00
2019-03-25T09:53:29.788Z,1.90
2019-03-25T09:55:58.442Z,1.90
2019-03-25T09:58:35.833Z,1.90
2019-03-25T10:00:57.124Z,2.10
2019-03-25T10:03:25.589Z,2.10
2019-03-25T10:05:54.176Z,2.27
2019-03-25T10:08:22.693Z,1.90
2019-03-25T10:10:51.231Z,1.97
2019-03-25T10:13:19.762Z,1.67
2019-03-25T10:15:48.255Z,2.00
2019-03-25T10:18:16.699Z,2.03
2019-03-25T10:20:45.162Z,1.90
2019-03-25T10:23:13.735Z,1.43
2019-03-25T10:25:42.321Z,2.00
2019-03-25T10:28:11.504Z,2.20
2019-03-25T10:30:40.013Z,2.83
2019-03-25T10:33:08.468Z,3.00
2019-03-25T10:35:36.925Z,3.20
2019-03-25T10:38:05.412Z,3.30
2019-03-25T10:40:33.876Z,3.40
2019-03-25T10:43:02.403Z,4.43
2019-03-25T10:45:30.987Z,4.00
2019-03-25T10:47:59.448Z,5.33
2019-03-25T10:50:27.901Z,5.70
2019-03-25T10:52:56.397Z,5.93
2019-03-25T10:55:24.855Z,5.67
2019-03-25T10:57:53.377Z,5.90
2019-03-25T11:00:22.215Z,6.10
2019-03-25T11:02:50.837Z,6.33
2019-03-25T11:05:19.495Z,6.93
2019-03-25T11:07:48.005Z,6.37
2019-03-25T11:10:16.798Z,6.40
2019-03-25T11:12:45.322Z,5.90
2019-03-25T11:15:14.274Z,4.80
2019-03-25T11:17:42.718Z,3.87
2019-03-25T11:20:14.481Z,3.83
2019-03-25T11:22:42.972Z,3.90
2019-03-25T11:25:11.890Z,3.50
2019-03-25T11:27:40.409Z,3.67
2019-03-25T11:30:11.369Z,3.53
2019-03-25T11:32:39.890Z,3.93
2019-03-25T11:35:09.774Z,5.10
2019-03-25T11:37:38.362Z,4.37
2019-03-25T11:40:09.091Z,4.03
2019-03-25T11:42:37.694Z,3.63
2019-03-25T11:45:10.381Z,3.77
2019-03-25T11:47:38.935Z,4.07
2019-03-25T11:50:10.420Z,4.57
2019-03-25T11:52:38.941Z,4.47
2019-03-25T11:55:08.052Z,4.17
2019-03-25T11:57:36.654Z,3.50
2019-03-25T12:00:08.051Z,3.40
2019-03-25T12:02:36.629Z,3.50
2019-03-25T12:05:07.031Z,3.87
2019-03-25T12:07:35.556Z,3.60
2019-03-25T12:10:07.768Z,3.47
2019-03-25T12:12:36.227Z,4.20
2019-03-25T12:15:07.478Z,4.07
2019-03-25T12:17:35.998Z,3.70
2019-03-25T12:20:06.419Z,3.20
2019-03-25T12:22:34.983Z,3.13
2019-03-25T12:25:03.800Z,2.67
2019-03-25T12:27:32.409Z,2.50
2019-03-25T12:30:01.080Z,2.33
2019-03-25T12:32:29.603Z,2.20
2019-03-25T12:34:58.131Z,2.20
2019-03-25T12:37:26.640Z,2.33
2019-03-25T12:39:55.090Z,1.93
2019-03-25T12:42:23.541Z,2.13
2019-03-25T12:44:52.063Z,1.67
2019-03-25T12:47:20.591Z,2.00
2019-03-25T12:49:49.043Z,1.73
2019-03-25T12:52:17.642Z,2.37
2019-03-25T12:54:46.086Z,1.77
2019-03-25T12:57:14.604Z,2.10
2019-03-25T12:59:43.093Z,2.10
2019-03-25T13:02:13.205Z,2.47
2019-03-25T13:04:41.731Z,2.20
2019-03-25T13:07:10.226Z,2.20
2019-03-25T13:09:38.694Z,1.90
2019-03-25T13:12:07.271Z,1.70
2019-03-25T13:14:35.758Z,1.97
2019-03-25T13:17:04.318Z,1.90
2019-03-25T13:19:32.831Z,1.73
2019-03-25T13:22:20.668Z,1.30
2019-03-25T13:24:49.128Z,1.27
2019-03-25T13:27:17.647Z,1.20
2019-03-25T13:29:52.444Z,1.13
2019-03-25T13:32:16.516Z,1.00
2019-03-25T13:34:44.971Z,1.00
2019-03-25T13:37:13.540Z,1.13
2019-03-25T13:39:42.008Z,0.87
2019-03-25T13:42:10.671Z,1.03
2019-03-25T13:44:39.205Z,0.93
2019-03-25T13:47:07.658Z,1.00
2019-03-25T13:49:36.127Z,0.97
2019-03-25T13:52:04.887Z,1.00
2019-03-25T13:54:33.340Z,1.00
2019-03-25T13:57:02.214Z,1.23
2019-03-25T13:59:30.846Z,1.07
2019-03-25T14:01:59.374Z,0.80
2019-03-25T14:04:27.823Z,1.10
2019-03-25T14:06:56.381Z,0.80
2019-03-25T14:09:24.841Z,0.70
2019-03-25T14:11:53.284Z,0.90
2019-03-25T14:14:21.794Z,1.00
2019-03-25T14:16:50.251Z,0.80
2019-03-25T14:19:18.787Z,0.90
2019-03-25T14:21:47.351Z,0.80
2019-03-25T14:24:15.808Z,0.70
2019-03-25T14:26:44.336Z,0.90
2019-03-25T14:29:12.938Z,0.80
2019-03-25T14:31:41.465Z,0.90
2019-03-25T14:34:09.995Z,0.70
2019-03-25T14:36:38.675Z,0.80
2019-03-25T14:39:07.568Z,0.90
2019-03-25T14:41:36.092Z,1.20
2019-03-25T14:44:04.856Z,1.07
2019-03-25T14:46:33.353Z,1.47
2019-03-25T14:49:01.828Z,1.00
2019-03-25T14:51:30.323Z,1.00
2019-03-25T14:53:58.773Z,1.20
2019-03-25T14:56:27.222Z,1.00
2019-03-25T14:58:55.707Z,1.10
2019-03-25T15:01:24.241Z,1.33
2019-03-25T15:03:52.694Z,1.07
2019-03-25T15:06:21.294Z,1.20
2019-03-25T15:08:49.821Z,1.13
2019-03-25T15:11:18.437Z,1.10
2019-03-25T15:13:47.036Z,1.47
2019-03-25T15:16:15.694Z,1.10
2019-03-25T15:18:44.211Z,1.10
2019-03-25T15:21:12.789Z,1.00
2019-03-25T15:23:41.259Z,1.00
2019-03-25T15:26:09.882Z,1.00
2019-03-25T15:28:38.384Z,1.00
2019-03-25T15:31:07.008Z,1.00
2019-03-25T15:33:35.655Z,0.80
2019-03-25T15:36:04.187Z,1.10
2019-03-25T15:38:32.797Z,0.83
2019-03-25T15:41:03.735Z,1.00
2019-03-25T15:43:32.280Z,1.07
2019-03-25T15:46:01.204Z,1.00
2019-03-25T15:48:29.815Z,1.00
2019-03-25T15:50:58.358Z,0.97
2019-03-25T15:53:28.690Z,0.87
2019-03-25T15:55:57.127Z,0.90
2019-03-25T15:58:26.462Z,0.87
2019-03-25T16:00:55.080Z,0.90
2019-03-25T16:03:23.645Z,1.10
2019-03-25T16:05:52.674Z,1.00
2019-03-25T16:08:21.148Z,1.30
2019-03-25T16:10:51.658Z,1.13
2019-03-25T16:13:19.911Z,1.00
2019-03-25T16:15:48.512Z,1.10
2019-03-25T16:18:34.706Z,1.10
2019-03-25T16:21:22.506Z,1.00
2019-03-25T16:23:51.018Z,1.10
2019-03-25T16:26:19.535Z,1.07
2019-03-25T16:28:47.994Z,1.27
2019-03-25T16:31:16.490Z,1.00
2019-03-25T16:33:45.015Z,1.03
2019-03-25T16:36:14.028Z,1.10
2019-03-25T16:38:42.539Z,1.17
2019-03-25T16:41:11.154Z,1.10
2019-03-25T16:43:39.694Z,1.37
2019-03-25T16:46:08.306Z,1.20
2019-03-25T16:48:36.885Z,1.10
2019-03-25T16:51:05.565Z,1.30
2019-03-25T16:53:34.236Z,1.73
2019-03-25T16:56:02.838Z,1.47
2019-03-25T16:58:31.395Z,1.57
2019-03-25T17:01:09.547Z,1.60
2019-03-25T17:03:30.062Z,2.00
2019-03-25T17:05:58.522Z,1.33
2019-03-25T17:08:27.025Z,1.53
2019-03-25T17:10:56.684Z,1.43
2019-03-25T17:13:25.432Z,1.90
2019-03-25T17:15:54.024Z,1.63
2019-03-25T17:18:22.491Z,1.80
2019-03-25T17:20:50.942Z,1.80
2019-03-25T17:23:19.542Z,1.70
2019-03-25T17:25:52.875Z,1.80
2019-03-25T17:28:18.206Z,2.23
2019-03-25T17:30:46.774Z,2.10
2019-03-25T17:33:15.227Z,1.80
2019-03-25T17:35:43.949Z,1.90
2019-03-25T17:38:12.671Z,2.20
2019-03-25T17:40:41.252Z,1.80
2019-03-25T17:43:09.708Z,1.87
2019-03-25T17:45:38.277Z,2.23
2019-03-25T17:48:06.792Z,2.20
2019-03-25T17:50:35.261Z,2.13
2019-03-25T17:53:03.758Z,2.40
2019-03-25T17:55:33.855Z,2.10
2019-03-25T17:58:02.366Z,2.10
2019-03-25T18:00:48.877Z,2.80
2019-03-25T18:03:17.333Z,2.33
2019-03-25T18:05:45.807Z,2.60
2019-03-25T18:08:14.646Z,2.20
2019-03-25T18:10:43.098Z,2.93
2019-03-25T18:13:21.742Z,2.77
2019-03-25T18:15:41.846Z,2.50
2019-03-25T18:18:10.295Z,2.33
2019-03-25T18:20:38.779Z,2.20
2019-03-25T18:23:07.331Z,2.60
2019-03-25T18:25:35.859Z,2.30
2019-03-25T18:28:04.450Z,2.60
2019-03-25T18:30:34.671Z,2.60
2019-03-25T18:33:03.376Z,2.93
2019-03-25T18:35:31.842Z,2.40
2019-03-25T18:38:00.348Z,2.43
2019-03-25T18:40:28.945Z,2.70
2019-03-25T18:42:57.483Z,2.63
2019-03-25T18:45:25.997Z,2.20
2019-03-25T18:47:54.710Z,2.63
2019-03-25T18:50:23.247Z,2.47
2019-03-25T18:52:51.938Z,2.63
2019-03-25T18:55:20.413Z,2.63
2019-03-25T18:57:48.871Z,2.13
2019-03-25T19:00:34.086Z,2.50
2019-03-25T19:03:03.147Z,2.73
2019-03-25T19:05:32.019Z,2.20
2019-03-25T19:08:03.815Z,3.00
2019-03-25T19:10:32.682Z,2.57
2019-03-25T19:13:01.129Z,2.27
2019-03-25T19:15:29.720Z,3.03
2019-03-25T19:17:58.286Z,2.63
2019-03-25T19:20:26.773Z,2.50
2019-03-25T19:22:55.540Z,2.40
2019-03-25T19:25:24.069Z,2.40
2019-03-25T19:27:52.781Z,2.43
2019-03-25T19:30:21.383Z,2.30
2019-03-25T19:32:49.910Z,2.50
2019-03-25T19:35:18.446Z,2.30
2019-03-25T19:37:47.032Z,2.60
2019-03-25T19:40:15.929Z,2.40
2019-03-25T19:42:44.391Z,2.10
2019-03-25T19:45:14.807Z,2.13
2019-03-25T19:47:43.358Z,2.43
2019-03-25T19:50:12.833Z,2.47
2019-03-25T19:52:41.401Z,2.53
2019-03-25T19:55:10.109Z,2.50
2019-03-25T19:57:38.579Z,2.07
2019-03-25T20:00:08.863Z,2.50
2019-03-25T20:02:37.323Z,2.40
2019-03-25T20:05:08.897Z,2.30
2019-03-25T20:07:38.161Z,2.33
2019-03-25T20:10:07.591Z,2.77
2019-03-25T20:12:36.113Z,2.60
2019-03-25T20:15:07.078Z,2.50
2019-03-25T20:17:35.660Z,2.73
2019-03-25T20:20:06.918Z,2.03
2019-03-25T20:22:35.590Z,2.60
2019-03-25T20:25:06.160Z,2.27
2019-03-25T20:27:34.715Z,2.50
2019-03-25T20:30:23.177Z,2.17
2019-03-25T20:32:51.647Z,1.97
2019-03-25T20:35:20.176Z,2.37
2019-03-25T20:37:48.756Z,2.00
2019-03-25T20:40:38.127Z,2.30
2019-03-25T20:43:07.121Z,2.50
2019-03-25T20:45:35.631Z,2.30
2019-03-25T20:48:04.195Z,2.80
2019-03-25T20:50:32.893Z,2.80
2019-03-25T20:53:01.409Z,2.80
2019-03-25T20:55:29.934Z,2.40
2019-03-25T20:57:58.650Z,2.60
2019-03-25T21:01:09.129Z,2.23
2019-03-25T21:03:37.808Z,2.57
2019-03-25T21:06:06.432Z,2.13
2019-03-25T21:08:34.942Z,2.37
2019-03-25T21:11:03.792Z,2.50
2019-03-25T21:13:32.422Z,2.70
2019-03-25T21:16:00.883Z,2.63
2019-03-25T21:18:29.482Z,2.57
2019-03-25T21:20:58.058Z,2.60
2019-03-25T21:23:26.602Z,2.80
2019-03-25T21:25:55.212Z,2.40
2019-03-25T21:28:23.740Z,2.60
2019-03-25T21:30:52.583Z,2.77
2019-03-25T21:33:21.213Z,2.70
2019-03-25T21:35:49.775Z,2.57
2019-03-25T21:38:18.351Z,2.60
2019-03-25T21:40:47.082Z,2.70
2019-03-25T21:43:15.633Z,2.57
2019-03-25T21:45:44.277Z,2.10
2019-03-25T21:48:12.815Z,2.30
2019-03-25T21:50:41.391Z,2.20
2019-03-25T21:53:09.893Z,2.50
2019-03-25T21:55:38.448Z,2.97
2019-03-25T21:58:06.979Z,2.70
2019-03-25T22:00:35.516Z,2.40
2019-03-25T22:03:11.289Z,2.50
2019-03-25T22:05:34.411Z,2.60
2019-03-25T22:08:03.024Z,2.33
2019-03-25T22:10:31.563Z,2.47
2019-03-25T22:13:19.514Z,3.03
2019-03-25T22:15:48.132Z,3.10
2019-03-25T22:18:18.120Z,2.60
2019-03-25T22:20:46.566Z,2.80
2019-03-25T22:23:15.064Z,2.70
2019-03-25T22:25:43.702Z,3.20
2019-03-25T22:28:12.542Z,2.73
2019-03-25T22:30:41.177Z,2.83
2019-03-25T22:33:09.620Z,2.70
2019-03-25T22:35:38.076Z,2.47
2019-03-25T22:38:06.649Z,2.87
2019-03-25T22:40:35.174Z,2.60
2019-03-25T22:43:03.754Z,3.10
2019-03-25T22:45:32.611Z,3.10
2019-03-25T22:48:01.113Z,2.90
2019-03-25T22:50:31.145Z,2.83
2019-03-25T22:52:59.987Z,2.90
2019-03-25T22:55:28.579Z,2.47
2019-03-25T22:57:57.124Z,2.37
2019-03-25T23:00:27.485Z,2.90
2019-03-25T23:02:55.988Z,3.10
2019-03-25T23:05:24.500Z,3.00
2019-03-25T23:07:53.001Z,4.07
2019-03-25T23:10:21.466Z,3.30
2019-03-25T23:12:49.999Z,3.30
2019-03-25T23:15:18.503Z,3.47
2019-03-25T23:17:47.040Z,3.03
2019-03-25T23:20:16.304Z,2.80
2019-03-25T23:22:44.802Z,3.27
2019-03-25T23:25:13.278Z,3.00
2019-03-25T23:27:41.736Z,3.37
2019-03-25T23:30:10.540Z,2.70
2019-03-25T23:32:38.980Z,2.97
2019-03-25T23:35:07.802Z,3.20
2019-03-25T23:37:36.457Z,2.90
2019-03-25T23:40:08.077Z,2.80
2019-03-25T23:42:36.524Z,2.70
2019-03-25T23:45:06.866Z,2.80
2019-03-25T23:47:35.389Z,3.50
2019-03-25T23:50:05.472Z,3.03
2019-03-25T23:52:33.981Z,3.57
2019-03-25T23:55:02.447Z,3.00
2019-03-25T23:57:30.997Z,3.57
2019-03-25T23:59:59.491Z,3.80
